sensor_id;sensor_type;location;lat;lon;timestamp;P1;durP1;ratioP1;P2;durP2;ratioP2
10497;SDS011;5296;51.060;13.750;2023-07-13T00:03:53;2.47;;;2.13;;
10497;SDS011;5296;51.060;13.750;2023-07-13T00:08:55;5.57;;;2.03;;
10497;SDS011;5296;51.060;13.750;2023-07-13T00:13:56;2.78;;;2.03;;
10497;SDS011;5296;51.060;13.750;2023-07-13T00:18:58;4.07;;;1.95;;
10497;SDS011;5296;51.060;13.750;2023-07-13T00:24:01;2.15;;;1.88;;
10497;SDS011;5296;51.060;13.750;2023-07-13T00:29:04;3.53;;;2.00;;
10497;SDS011;5296;51.060;13.750;2023-07-13T00:34:07;2.05;;;1.80;;
10497;SDS011;5296;51.060;13.750;2023-07-13T00:39:09;1.85;;;1.73;;
10497;SDS011;5296;51.060;13.750;2023-07-13T00:44:13;5.07;;;1.90;;
10497;SDS011;5296;51.060;13.750;2023-07-13T00:49:17;2.90;;;2.00;;
10497;SDS011;5296;51.060;13.750;2023-07-13T00:54:23;4.18;;;1.90;;
10497;SDS011;5296;51.060;13.750;2023-07-13T00:59:28;3.90;;;1.90;;
10497;SDS011;5296;51.060;13.750;2023-07-13T01:04:30;2.53;;;1.92;;
10497;SDS011;5296;51.060;13.750;2023-07-13T01:09:32;2.60;;;1.65;;
10497;SDS011;5296;51.060;13.750;2023-07-13T01:14:34;2.05;;;1.90;;
10497;SDS011;5296;51.060;13.750;2023-07-13T01:24:40;2.40;;;1.92;;
10497;SDS011;5296;51.060;13.750;2023-07-13T01:29:44;2.63;;;1.70;;
10497;SDS011;5296;51.060;13.750;2023-07-13T01:34:50;2.88;;;2.17;;
10497;SDS011;5296;51.060;13.750;2023-07-13T01:39:55;2.42;;;2.10;;
10497;SDS011;5296;51.060;13.750;2023-07-13T01:44:57;2.28;;;2.00;;
10497;SDS011;5296;51.060;13.750;2023-07-13T01:49:58;2.75;;;2.20;;
10497;SDS011;5296;51.060;13.750;2023-07-13T01:55:00;2.72;;;2.30;;
10497;SDS011;5296;51.060;13.750;2023-07-13T02:00:05;2.78;;;2.00;;
10497;SDS011;5296;51.060;13.750;2023-07-13T02:05:15;2.72;;;1.83;;
10497;SDS011;5296;51.060;13.750;2023-07-13T02:10:18;2.78;;;1.90;;
10497;SDS011;5296;51.060;13.750;2023-07-13T02:15:19;3.63;;;2.40;;
10497;SDS011;5296;51.060;13.750;2023-07-13T02:20:22;3.03;;;2.28;;
10497;SDS011;5296;51.060;13.750;2023-07-13T02:25:23;2.33;;;2.13;;
10497;SDS011;5296;51.060;13.750;2023-07-13T02:30:26;3.00;;;2.20;;
10497;SDS011;5296;51.060;13.750;2023-07-13T02:35:32;2.60;;;2.08;;
10497;SDS011;5296;51.060;13.750;2023-07-13T02:40:34;4.00;;;2.28;;
10497;SDS011;5296;51.060;13.750;2023-07-13T02:45:36;4.75;;;2.15;;
10497;SDS011;5296;51.060;13.750;2023-07-13T02:50:38;3.50;;;2.13;;
10497;SDS011;5296;51.060;13.750;2023-07-13T02:55:40;6.32;;;2.03;;
10497;SDS011;5296;51.060;13.750;2023-07-13T03:00:43;2.55;;;2.25;;
10497;SDS011;5296;51.060;13.750;2023-07-13T03:05:45;2.55;;;2.03;;
10497;SDS011;5296;51.060;13.750;2023-07-13T03:11:01;3.35;;;2.30;;
10497;SDS011;5296;51.060;13.750;2023-07-13T03:16:11;4.43;;;2.22;;
10497;SDS011;5296;51.060;13.750;2023-07-13T03:21:18;2.10;;;1.90;;
10497;SDS011;5296;51.060;13.750;2023-07-13T03:26:20;7.30;;;2.63;;
10497;SDS011;5296;51.060;13.750;2023-07-13T03:31:23;2.50;;;2.30;;
10497;SDS011;5296;51.060;13.750;2023-07-13T03:36:28;2.30;;;2.10;;
10497;SDS011;5296;51.060;13.750;2023-07-13T03:41:34;2.67;;;2.30;;
10497;SDS011;5296;51.060;13.750;2023-07-13T03:46:36;2.95;;;2.47;;
10497;SDS011;5296;51.060;13.750;2023-07-13T03:51:38;4.43;;;2.80;;
10497;SDS011;5296;51.060;13.750;2023-07-13T03:56:39;4.07;;;2.40;;
10497;SDS011;5296;51.060;13.750;2023-07-13T04:01:43;4.05;;;2.75;;
10497;SDS011;5296;51.060;13.750;2023-07-13T04:06:46;3.10;;;2.33;;
10497;SDS011;5296;51.060;13.750;2023-07-13T04:11:48;2.40;;;2.20;;
10497;SDS011;5296;51.060;13.750;2023-07-13T04:16:50;3.58;;;2.65;;
10497;SDS011;5296;51.060;13.750;2023-07-13T04:21:51;4.93;;;2.40;;
10497;SDS011;5296;51.060;13.750;2023-07-13T04:26:53;2.75;;;2.08;;
10497;SDS011;5296;51.060;13.750;2023-07-13T04:31:55;3.65;;;2.17;;
10497;SDS011;5296;51.060;13.750;2023-07-13T04:36:56;4.15;;;2.25;;
10497;SDS011;5296;51.060;13.750;2023-07-13T04:41:58;4.13;;;2.50;;
10497;SDS011;5296;51.060;13.750;2023-07-13T04:47:00;4.88;;;2.20;;
10497;SDS011;5296;51.060;13.750;2023-07-13T04:52:02;3.83;;;2.22;;
10497;SDS011;5296;51.060;13.750;2023-07-13T04:57:04;2.90;;;1.90;;
10497;SDS011;5296;51.060;13.750;2023-07-13T05:02:07;6.32;;;2.97;;
10497;SDS011;5296;51.060;13.750;2023-07-13T05:07:09;6.72;;;2.50;;
10497;SDS011;5296;51.060;13.750;2023-07-13T05:12:11;4.05;;;2.50;;
10497;SDS011;5296;51.060;13.750;2023-07-13T05:17:12;3.75;;;2.47;;
10497;SDS011;5296;51.060;13.750;2023-07-13T05:22:14;2.80;;;2.20;;
10497;SDS011;5296;51.060;13.750;2023-07-13T05:27:16;2.00;;;1.90;;
10497;SDS011;5296;51.060;13.750;2023-07-13T05:32:18;2.30;;;2.00;;
10497;SDS011;5296;51.060;13.750;2023-07-13T05:37:20;4.88;;;2.08;;
10497;SDS011;5296;51.060;13.750;2023-07-13T05:42:21;4.90;;;2.13;;
10497;SDS011;5296;51.060;13.750;2023-07-13T05:47:23;2.65;;;2.22;;
10497;SDS011;5296;51.060;13.750;2023-07-13T05:52:25;3.17;;;2.08;;
10497;SDS011;5296;51.060;13.750;2023-07-13T05:57:26;5.35;;;2.17;;
10497;SDS011;5296;51.060;13.750;2023-07-13T06:02:28;4.28;;;2.30;;
10497;SDS011;5296;51.060;13.750;2023-07-13T06:07:30;2.80;;;2.03;;
10497;SDS011;5296;51.060;13.750;2023-07-13T06:12:32;4.88;;;2.45;;
10497;SDS011;5296;51.060;13.750;2023-07-13T06:17:33;4.07;;;1.88;;
10497;SDS011;5296;51.060;13.750;2023-07-13T06:22:35;4.20;;;2.58;;
10497;SDS011;5296;51.060;13.750;2023-07-13T06:27:37;7.10;;;2.33;;
10497;SDS011;5296;51.060;13.750;2023-07-13T06:32:38;3.00;;;2.20;;
10497;SDS011;5296;51.060;13.750;2023-07-13T06:37:42;8.35;;;2.25;;
10497;SDS011;5296;51.060;13.750;2023-07-13T06:42:44;5.43;;;2.22;;
10497;SDS011;5296;51.060;13.750;2023-07-13T06:47:46;2.20;;;1.95;;
10497;SDS011;5296;51.060;13.750;2023-07-13T06:52:47;5.03;;;2.60;;
10497;SDS011;5296;51.060;13.750;2023-07-13T06:57:49;2.92;;;2.13;;
10497;SDS011;5296;51.060;13.750;2023-07-13T07:02:51;3.38;;;2.20;;
10497;SDS011;5296;51.060;13.750;2023-07-13T07:07:53;6.00;;;2.75;;
10497;SDS011;5296;51.060;13.750;2023-07-13T07:12:56;4.10;;;2.58;;
10497;SDS011;5296;51.060;13.750;2023-07-13T07:17:58;3.78;;;2.17;;
10497;SDS011;5296;51.060;13.750;2023-07-13T07:23:00;2.65;;;2.35;;
10497;SDS011;5296;51.060;13.750;2023-07-13T07:28:01;6.55;;;2.50;;
10497;SDS011;5296;51.060;13.750;2023-07-13T07:33:06;7.53;;;2.60;;
10497;SDS011;5296;51.060;13.750;2023-07-13T07:38:08;3.75;;;2.17;;
10497;SDS011;5296;51.060;13.750;2023-07-13T07:43:11;3.63;;;2.42;;
10497;SDS011;5296;51.060;13.750;2023-07-13T07:48:13;4.18;;;2.10;;
10497;SDS011;5296;51.060;13.750;2023-07-13T07:53:15;3.22;;;2.10;;
10497;SDS011;5296;51.060;13.750;2023-07-13T07:58:17;5.97;;;2.08;;
10497;SDS011;5296;51.060;13.750;2023-07-13T08:03:39;3.00;;;1.98;;
10497;SDS011;5296;51.060;13.750;2023-07-13T08:08:43;2.47;;;1.50;;
10497;SDS011;5296;51.060;13.750;2023-07-13T08:13:45;4.10;;;2.05;;
10497;SDS011;5296;51.060;13.750;2023-07-13T08:18:47;5.95;;;2.00;;
10497;SDS011;5296;51.060;13.750;2023-07-13T08:23:48;2.30;;;1.80;;
10497;SDS011;5296;51.060;13.750;2023-07-13T08:28:50;4.20;;;1.60;;
10497;SDS011;5296;51.060;13.750;2023-07-13T08:33:51;2.40;;;1.88;;
10497;SDS011;5296;51.060;13.750;2023-07-13T08:38:53;2.55;;;1.65;;
10497;SDS011;5296;51.060;13.750;2023-07-13T08:43:58;3.80;;;1.95;;
10497;SDS011;5296;51.060;13.750;2023-07-13T08:49:02;2.85;;;1.90;;
10497;SDS011;5296;51.060;13.750;2023-07-13T08:54:11;5.10;;;1.88;;
10497;SDS011;5296;51.060;13.750;2023-07-13T08:59:34;2.90;;;1.50;;
10497;SDS011;5296;51.060;13.750;2023-07-13T09:04:45;6.07;;;1.70;;
10497;SDS011;5296;51.060;13.750;2023-07-13T09:09:55;1.90;;;1.40;;
10497;SDS011;5296;51.060;13.750;2023-07-13T09:14:59;4.20;;;1.95;;
10497;SDS011;5296;51.060;13.750;2023-07-13T09:20:22;7.78;;;2.10;;
10497;SDS011;5296;51.060;13.750;2023-07-13T09:26:00;2.70;;;1.80;;
10497;SDS011;5296;51.060;13.750;2023-07-13T09:31:21;5.38;;;1.90;;
10497;SDS011;5296;51.060;13.750;2023-07-13T09:36:29;3.17;;;2.30;;
10497;SDS011;5296;51.060;13.750;2023-07-13T09:47:03;2.80;;;1.60;;
10497;SDS011;5296;51.060;13.750;2023-07-13T09:52:18;5.13;;;1.90;;
10497;SDS011;5296;51.060;13.750;2023-07-13T09:57:22;4.22;;;1.60;;
10497;SDS011;5296;51.060;13.750;2023-07-13T10:02:35;2.85;;;1.55;;
10497;SDS011;5296;51.060;13.750;2023-07-13T10:07:42;3.03;;;1.85;;
10497;SDS011;5296;51.060;13.750;2023-07-13T10:12:48;2.42;;;1.90;;
10497;SDS011;5296;51.060;13.750;2023-07-13T10:17:54;3.88;;;1.80;;
10497;SDS011;5296;51.060;13.750;2023-07-13T10:23:04;3.45;;;1.73;;
10497;SDS011;5296;51.060;13.750;2023-07-13T10:33:21;3.15;;;1.40;;
10497;SDS011;5296;51.060;13.750;2023-07-13T10:38:24;2.10;;;1.90;;
10497;SDS011;5296;51.060;13.750;2023-07-13T10:43:33;3.88;;;1.77;;
10497;SDS011;5296;51.060;13.750;2023-07-13T10:48:43;4.45;;;1.90;;
10497;SDS011;5296;51.060;13.750;2023-07-13T10:53:47;2.70;;;1.63;;
10497;SDS011;5296;51.060;13.750;2023-07-13T10:59:00;3.58;;;2.00;;
10497;SDS011;5296;51.060;13.750;2023-07-13T11:04:04;3.28;;;2.13;;
10497;SDS011;5296;51.060;13.750;2023-07-13T11:19:44;2.65;;;1.50;;
10497;SDS011;5296;51.060;13.750;2023-07-13T11:30:07;2.80;;;1.70;;
10497;SDS011;5296;51.060;13.750;2023-07-13T11:35:19;4.47;;;1.80;;
10497;SDS011;5296;51.060;13.750;2023-07-13T11:40:25;3.55;;;1.80;;
10497;SDS011;5296;51.060;13.750;2023-07-13T11:45:30;5.47;;;1.77;;
10497;SDS011;5296;51.060;13.750;2023-07-13T11:50:52;4.50;;;1.73;;
10497;SDS011;5296;51.060;13.750;2023-07-13T11:55:56;2.67;;;1.85;;
10497;SDS011;5296;51.060;13.750;2023-07-13T12:00:59;3.65;;;1.90;;
10497;SDS011;5296;51.060;13.750;2023-07-13T12:06:04;4.85;;;1.58;;
10497;SDS011;5296;51.060;13.750;2023-07-13T12:11:16;4.32;;;1.85;;
10497;SDS011;5296;51.060;13.750;2023-07-13T12:16:26;6.70;;;1.75;;
10497;SDS011;5296;51.060;13.750;2023-07-13T12:26:39;3.40;;;1.50;;
10497;SDS011;5296;51.060;13.750;2023-07-13T12:31:41;5.35;;;1.83;;
10497;SDS011;5296;51.060;13.750;2023-07-13T12:36:51;2.60;;;1.80;;
10497;SDS011;5296;51.060;13.750;2023-07-13T12:41:54;6.10;;;1.77;;
10497;SDS011;5296;51.060;13.750;2023-07-13T12:47:30;2.33;;;1.83;;
10497;SDS011;5296;51.060;13.750;2023-07-13T12:52:33;4.60;;;1.58;;
10497;SDS011;5296;51.060;13.750;2023-07-13T12:57:39;2.03;;;1.40;;
10497;SDS011;5296;51.060;13.750;2023-07-13T13:02:46;5.40;;;1.52;;
10497;SDS011;5296;51.060;13.750;2023-07-13T13:07:52;2.42;;;1.58;;
10497;SDS011;5296;51.060;13.750;2023-07-13T13:12:53;6.75;;;1.70;;
10497;SDS011;5296;51.060;13.750;2023-07-13T13:17:55;2.15;;;1.30;;
10497;SDS011;5296;51.060;13.750;2023-07-13T13:23:00;2.50;;;1.35;;
10497;SDS011;5296;51.060;13.750;2023-07-13T13:28:01;2.45;;;1.60;;
10497;SDS011;5296;51.060;13.750;2023-07-13T13:33:05;3.25;;;1.55;;
10497;SDS011;5296;51.060;13.750;2023-07-13T13:38:10;4.15;;;1.50;;
10497;SDS011;5296;51.060;13.750;2023-07-13T13:43:17;2.38;;;1.52;;
10497;SDS011;5296;51.060;13.750;2023-07-13T13:48:31;4.55;;;1.40;;
10497;SDS011;5296;51.060;13.750;2023-07-13T13:53:34;3.63;;;1.90;;
10497;SDS011;5296;51.060;13.750;2023-07-13T13:58:36;3.00;;;1.45;;
10497;SDS011;5296;51.060;13.750;2023-07-13T14:03:37;2.22;;;1.30;;
10497;SDS011;5296;51.060;13.750;2023-07-13T14:08:39;2.85;;;1.67;;
10497;SDS011;5296;51.060;13.750;2023-07-13T14:13:45;3.78;;;1.75;;
10497;SDS011;5296;51.060;13.750;2023-07-13T14:18:52;2.72;;;1.80;;
10497;SDS011;5296;51.060;13.750;2023-07-13T14:23:54;2.72;;;1.90;;
10497;SDS011;5296;51.060;13.750;2023-07-13T14:28:56;5.40;;;1.70;;
10497;SDS011;5296;51.060;13.750;2023-07-13T14:33:58;4.30;;;2.00;;
10497;SDS011;5296;51.060;13.750;2023-07-13T14:39:05;3.22;;;1.30;;
10497;SDS011;5296;51.060;13.750;2023-07-13T14:44:16;2.65;;;1.50;;
10497;SDS011;5296;51.060;13.750;2023-07-13T14:49:38;5.72;;;1.77;;
10497;SDS011;5296;51.060;13.750;2023-07-13T14:54:41;3.03;;;1.50;;
10497;SDS011;5296;51.060;13.750;2023-07-13T14:59:45;3.25;;;1.55;;
10497;SDS011;5296;51.060;13.750;2023-07-13T15:04:47;2.83;;;1.55;;
10497;SDS011;5296;51.060;13.750;2023-07-13T15:09:49;3.47;;;1.58;;
10497;SDS011;5296;51.060;13.750;2023-07-13T15:14:52;3.85;;;1.40;;
10497;SDS011;5296;51.060;13.750;2023-07-13T15:19:53;2.13;;;1.35;;
10497;SDS011;5296;51.060;13.750;2023-07-13T15:24:55;3.13;;;1.50;;
10497;SDS011;5296;51.060;13.750;2023-07-13T15:30:01;5.50;;;1.73;;
10497;SDS011;5296;51.060;13.750;2023-07-13T15:35:03;4.50;;;1.08;;
10497;SDS011;5296;51.060;13.750;2023-07-13T15:40:05;2.40;;;1.40;;
10497;SDS011;5296;51.060;13.750;2023-07-13T15:45:15;3.25;;;1.30;;
10497;SDS011;5296;51.060;13.750;2023-07-13T15:50:24;1.38;;;1.13;;
10497;SDS011;5296;51.060;13.750;2023-07-13T15:55:26;3.55;;;1.23;;
10497;SDS011;5296;51.060;13.750;2023-07-13T16:00:29;1.88;;;1.00;;
10497;SDS011;5296;51.060;13.750;2023-07-13T16:05:30;3.13;;;1.17;;
10497;SDS011;5296;51.060;13.750;2023-07-13T16:10:34;1.63;;;1.15;;
10497;SDS011;5296;51.060;13.750;2023-07-13T16:15:38;1.65;;;1.20;;
10497;SDS011;5296;51.060;13.750;2023-07-13T16:20:45;2.10;;;1.05;;
10497;SDS011;5296;51.060;13.750;2023-07-13T16:25:48;2.03;;;1.20;;
10497;SDS011;5296;51.060;13.750;2023-07-13T16:30:50;3.22;;;1.08;;
10497;SDS011;5296;51.060;13.750;2023-07-13T16:35:52;2.55;;;1.40;;
10497;SDS011;5296;51.060;13.750;2023-07-13T16:40:54;1.90;;;1.27;;
10497;SDS011;5296;51.060;13.750;2023-07-13T16:45:56;3.30;;;1.83;;
10497;SDS011;5296;51.060;13.750;2023-07-13T16:51:00;2.45;;;2.00;;
10497;SDS011;5296;51.060;13.750;2023-07-13T16:56:02;2.38;;;1.90;;
10497;SDS011;5296;51.060;13.750;2023-07-13T17:01:06;2.83;;;2.00;;
10497;SDS011;5296;51.060;13.750;2023-07-13T17:06:14;2.70;;;2.00;;
10497;SDS011;5296;51.060;13.750;2023-07-13T17:11:25;2.78;;;2.00;;
10497;SDS011;5296;51.060;13.750;2023-07-13T17:16:28;2.75;;;1.80;;
10497;SDS011;5296;51.060;13.750;2023-07-13T17:21:32;2.50;;;2.05;;
10497;SDS011;5296;51.060;13.750;2023-07-13T17:26:33;2.00;;;1.80;;
10497;SDS011;5296;51.060;13.750;2023-07-13T17:31:36;2.67;;;1.50;;
10497;SDS011;5296;51.060;13.750;2023-07-13T17:36:38;2.20;;;1.83;;
10497;SDS011;5296;51.060;13.750;2023-07-13T17:41:41;2.85;;;1.52;;
10497;SDS011;5296;51.060;13.750;2023-07-13T17:46:44;3.50;;;1.90;;
10497;SDS011;5296;51.060;13.750;2023-07-13T17:51:48;1.30;;;1.20;;
10497;SDS011;5296;51.060;13.750;2023-07-13T17:56:53;3.55;;;1.33;;
10497;SDS011;5296;51.060;13.750;2023-07-13T18:01:55;2.65;;;1.40;;
10497;SDS011;5296;51.060;13.750;2023-07-13T18:06:57;2.03;;;1.60;;
10497;SDS011;5296;51.060;13.750;2023-07-13T18:12:08;2.03;;;1.52;;
10497;SDS011;5296;51.060;13.750;2023-07-13T18:17:11;3.40;;;1.40;;
10497;SDS011;5296;51.060;13.750;2023-07-13T18:22:15;3.78;;;1.35;;
10497;SDS011;5296;51.060;13.750;2023-07-13T18:27:18;3.10;;;1.40;;
10497;SDS011;5296;51.060;13.750;2023-07-13T18:32:20;3.90;;;1.73;;
10497;SDS011;5296;51.060;13.750;2023-07-13T18:37:22;2.50;;;1.60;;
10497;SDS011;5296;51.060;13.750;2023-07-13T18:42:24;1.60;;;1.50;;
10497;SDS011;5296;51.060;13.750;2023-07-13T18:47:26;2.92;;;1.60;;
10497;SDS011;5296;51.060;13.750;2023-07-13T18:52:34;2.38;;;1.70;;
10497;SDS011;5296;51.060;13.750;2023-07-13T18:57:35;3.75;;;1.90;;
10497;SDS011;5296;51.060;13.750;2023-07-13T19:02:37;1.48;;;1.38;;
10497;SDS011;5296;51.060;13.750;2023-07-13T19:07:39;1.58;;;1.20;;
10497;SDS011;5296;51.060;13.750;2023-07-13T19:12:43;1.98;;;1.70;;
10497;SDS011;5296;51.060;13.750;2023-07-13T19:17:45;2.55;;;1.65;;
10497;SDS011;5296;51.060;13.750;2023-07-13T19:22:47;2.17;;;1.60;;
10497;SDS011;5296;51.060;13.750;2023-07-13T19:27:49;1.85;;;1.58;;
10497;SDS011;5296;51.060;13.750;2023-07-13T19:32:54;2.67;;;1.70;;
10497;SDS011;5296;51.060;13.750;2023-07-13T19:37:57;3.03;;;1.90;;
10497;SDS011;5296;51.060;13.750;2023-07-13T19:42:59;2.50;;;1.50;;
10497;SDS011;5296;51.060;13.750;2023-07-13T19:48:01;2.72;;;1.70;;
10497;SDS011;5296;51.060;13.750;2023-07-13T19:53:02;2.72;;;1.83;;
10497;SDS011;5296;51.060;13.750;2023-07-13T19:58:04;2.38;;;1.70;;
10497;SDS011;5296;51.060;13.750;2023-07-13T20:03:07;1.83;;;1.65;;
10497;SDS011;5296;51.060;13.750;2023-07-13T20:08:20;2.22;;;1.73;;
10497;SDS011;5296;51.060;13.750;2023-07-13T20:13:22;2.72;;;1.50;;
10497;SDS011;5296;51.060;13.750;2023-07-13T20:18:26;3.72;;;2.10;;
10497;SDS011;5296;51.060;13.750;2023-07-13T20:23:28;2.10;;;1.80;;
10497;SDS011;5296;51.060;13.750;2023-07-13T20:28:29;3.97;;;1.63;;
10497;SDS011;5296;51.060;13.750;2023-07-13T20:33:31;5.43;;;1.80;;
10497;SDS011;5296;51.060;13.750;2023-07-13T20:38:34;3.72;;;1.80;;
10497;SDS011;5296;51.060;13.750;2023-07-13T20:43:36;3.35;;;1.73;;
10497;SDS011;5296;51.060;13.750;2023-07-13T20:48:39;2.50;;;1.83;;
10497;SDS011;5296;51.060;13.750;2023-07-13T20:53:46;3.85;;;1.70;;
10497;SDS011;5296;51.060;13.750;2023-07-13T20:58:48;4.82;;;1.65;;
10497;SDS011;5296;51.060;13.750;2023-07-13T21:03:54;3.15;;;1.85;;
10497;SDS011;5296;51.060;13.750;2023-07-13T21:08:58;2.40;;;1.80;;
10497;SDS011;5296;51.060;13.750;2023-07-13T21:14:00;2.65;;;1.70;;
10497;SDS011;5296;51.060;13.750;2023-07-13T21:19:02;1.83;;;1.60;;
10497;SDS011;5296;51.060;13.750;2023-07-13T21:24:04;1.50;;;1.40;;
10497;SDS011;5296;51.060;13.750;2023-07-13T21:29:06;4.38;;;2.00;;
10497;SDS011;5296;51.060;13.750;2023-07-13T21:34:17;2.20;;;1.70;;
10497;SDS011;5296;51.060;13.750;2023-07-13T21:39:21;5.85;;;1.85;;
10497;SDS011;5296;51.060;13.750;2023-07-13T21:44:24;6.72;;;2.10;;
10497;SDS011;5296;51.060;13.750;2023-07-13T21:49:27;4.43;;;1.73;;
10497;SDS011;5296;51.060;13.750;2023-07-13T21:54:29;3.42;;;1.90;;
10497;SDS011;5296;51.060;13.750;2023-07-13T21:59:31;2.55;;;1.50;;
10497;SDS011;5296;51.060;13.750;2023-07-13T22:04:33;5.30;;;2.10;;
10497;SDS011;5296;51.060;13.750;2023-07-13T22:09:35;3.17;;;1.75;;
10497;SDS011;5296;51.060;13.750;2023-07-13T22:14:37;2.67;;;2.00;;
10497;SDS011;5296;51.060;13.750;2023-07-13T22:19:38;7.22;;;1.90;;
10497;SDS011;5296;51.060;13.750;2023-07-13T22:24:40;3.60;;;1.85;;
10497;SDS011;5296;51.060;13.750;2023-07-13T22:29:41;2.95;;;1.65;;
10497;SDS011;5296;51.060;13.750;2023-07-13T22:34:43;3.15;;;2.00;;
10497;SDS011;5296;51.060;13.750;2023-07-13T22:39:45;4.60;;;2.00;;
10497;SDS011;5296;51.060;13.750;2023-07-13T22:44:46;2.15;;;1.77;;
10497;SDS011;5296;51.060;13.750;2023-07-13T22:49:49;3.60;;;1.70;;
10497;SDS011;5296;51.060;13.750;2023-07-13T22:54:51;5.05;;;1.88;;
10497;SDS011;5296;51.060;13.750;2023-07-13T22:59:52;4.50;;;1.65;;
10497;SDS011;5296;51.060;13.750;2023-07-13T23:04:55;3.63;;;1.95;;
10497;SDS011;5296;51.060;13.750;2023-07-13T23:09:57;4.35;;;1.70;;
10497;SDS011;5296;51.060;13.750;2023-07-13T23:15:09;7.20;;;1.80;;
10497;SDS011;5296;51.060;13.750;2023-07-13T23:20:13;3.17;;;1.90;;
10497;SDS011;5296;51.060;13.750;2023-07-13T23:25:19;2.47;;;1.52;;
10497;SDS011;5296;51.060;13.750;2023-07-13T23:30:24;3.15;;;1.63;;
10497;SDS011;5296;51.060;13.750;2023-07-13T23:35:30;7.57;;;1.92;;
10497;SDS011;5296;51.060;13.750;2023-07-13T23:40:33;1.88;;;1.70;;
10497;SDS011;5296;51.060;13.750;2023-07-13T23:45:35;3.17;;;2.00;;
10497;SDS011;5296;51.060;13.750;2023-07-13T23:50:37;2.47;;;1.85;;
10497;SDS011;5296;51.060;13.750;2023-07-13T23:55:39;4.82;;;1.70;;
